Limon International Airport
MRLM : now visible

Airfield :











YOU CAN JOIN US ON...

 
LOGIN :

Register | Disclaimer

   EN    FR    IT 

 









Legend :    VFR   Marginal VFR   IFR   Intensive IFR   Very Intensive IFR
Visi :
Ceiling :
>= 8 km
>= 3000ft
5 to 8 km
1000 to 3000 ft
1500m to 5 km
500 to 1000 ft
800 to 1500m
200 to 500 ft
< 800m
< 200 ft
Symbols :   Thunderstorms  Fog  Heavy snow  Heavy precipitations  Wind > 20 kt






- Airport Elevation : 7 ft
- IATA code : LIO


MRLM - Limon International

CURRENT METAR :
  • 031400Z 00000KT CAVOK 25/23 A2990

EXPIRED METARs :
  • 031300Z 00000KT CAVOK 24/23 A2988
  • 031200Z 00000KT 9999 DZ FEW010 BKN090 23/22 A2986

TAF MRLM
Valid from the 03 at 12:00 until the 04 at 12:00 UTC


031100Z 0312/0412 25004KT 9999 SCT020 SCT120 TX29/0320Z TN23/0312Z
BECMG 0314/0316 33007KT
TEMPO 0318/0322 RA BKN020
MHTG FIR / North America



MET'MAP, your aeronautical weather chart ! - Copyright ORBIFLY December 2007 - Disclaimer

ORBIFLY MET'MAP TEAM :

Programming & Development : Alexandra Zaïnal
Concept & original design : Baudouin d'Aumeries
Assistance for programming : Marc-Olivier Méhu
Technical & hardware support : Manuel Goepfert

Contact : metmap@orbifly.com




SOURCES & CREDITS :

   NOAA       Earth
Advisory